Time;durP1;ratioP1;P1;durP2;ratioP2;P2;SDS_P1;SDS_P2;PMS_P1;PMS_P2;Temp;Humidity;BMP_temperature;BMP_pressure;BME280_temperature;BME280_humidity;BME280_pressure;Samples;Min_cycle;Max_cycle;Signal;HPM_P1;HPM_P2
2022/04/04 00:02:14;;;;;;;3.17;1.63;;;;;;;1.46;100.00;100510.47;7396637;19;20738;-54
2022/04/04 00:04:44;;;;;;;4.67;2.53;;;;;;;1.46;100.00;100510.47;7390709;19;20191;-51
2022/04/04 00:07:13;;;;;;;5.93;2.10;;;;;;;1.46;100.00;100513.03;7396070;19;20396;-50
2022/04/04 00:09:43;;;;;;;6.30;1.97;;;;;;;1.47;100.00;100499.53;7389948;19;20194;-52
2022/04/04 00:12:15;;;;;;;6.43;2.70;;;;;;;1.53;100.00;100506.72;7396544;19;20463;-51
2022/04/04 00:14:45;;;;;;;7.20;2.10;;;;;;;1.58;100.00;100505.41;7390790;19;20394;-54
2022/04/04 00:17:14;;;;;;;5.53;1.50;;;;;;;1.49;100.00;100509.81;7396016;19;20387;-52
2022/04/04 00:19:45;;;;;;;4.30;2.90;;;;;;;1.50;100.00;100495.44;7389570;19;20945;-48
2022/04/04 00:22:14;;;;;;;9.80;3.27;;;;;;;1.45;100.00;100498.50;7396852;19;20375;-49
2022/04/04 00:24:44;;;;;;;3.93;1.27;;;;;;;1.44;100.00;100491.66;7391174;19;20414;-49
2022/04/04 00:27:16;;;;;;;2.37;1.37;;;;;;;1.42;100.00;100500.84;7396741;19;20387;-50
2022/04/04 00:29:45;;;;;;;12.67;1.53;;;;;;;1.43;100.00;100492.44;7389633;19;20418;-53
2022/04/04 00:32:15;;;;;;;6.43;1.70;;;;;;;1.47;100.00;100491.91;7397613;19;21109;-53
2022/04/04 00:34:45;;;;;;;4.10;2.07;;;;;;;1.48;100.00;100478.41;7387634;19;20462;-51
2022/04/04 00:37:14;;;;;;;5.70;1.97;;;;;;;1.45;100.00;100473.09;7397259;19;20369;-53
2022/04/04 00:39:44;;;;;;;2.07;0.73;;;;;;;1.48;100.00;100465.69;7388144;19;20720;-50
2022/04/04 00:42:19;;;;;;;2.20;1.10;;;;;;;1.52;100.00;100471.00;7396490;19;20391;-50
2022/04/04 00:44:51;;;;;;;4.00;1.35;;;;;;;1.52;100.00;100456.63;7386952;19;20398;-52
2022/04/04 00:47:21;;;;;;;3.40;1.70;;;;;;;1.51;100.00;100449.78;7398973;19;20138;-53
2022/04/04 00:49:50;;;;;;;5.60;1.70;;;;;;;1.51;100.00;100453.97;7389065;19;20418;-52
2022/04/04 00:52:20;;;;;;;6.30;1.50;;;;;;;1.48;100.00;100450.44;7397516;19;20924;-49
2022/04/04 00:54:50;;;;;;;2.70;0.70;;;;;;;1.48;100.00;100439.38;7390871;19;20423;-48
2022/04/04 00:57:22;;;;;;;10.77;1.90;;;;;;;1.50;100.00;100432.75;7398694;19;20392;-52
2022/04/04 00:59:52;;;;;;;3.83;1.90;;;;;;;1.47;100.00;100438.50;7388376;19;20754;-50
2022/04/04 01:02:22;;;;;;;3.03;1.33;;;;;;;1.51;100.00;100438.72;7397246;19;20929;-50
2022/04/04 01:04:51;;;;;;;3.90;1.70;;;;;;;1.50;100.00;100426.78;7390251;19;20825;-54
2022/04/04 01:07:21;;;;;;;5.15;2.08;;;;;;;1.48;100.00;100425.00;7396642;19;20382;-55
2022/04/04 01:09:50;;;;;;;2.00;1.00;;;;;;;1.47;100.00;100423.25;7385446;19;20714;-53
2022/04/04 01:12:22;;;;;;;3.93;1.27;;;;;;;1.50;100.00;100408.97;7398682;19;20388;-53
2022/04/04 01:14:52;;;;;;;7.97;1.63;;;;;;;1.48;100.00;100417.38;7386436;19;20439;-50
2022/04/04 01:17:25;;;;;;;3.60;1.80;;;;;;;1.49;100.00;100400.47;7396268;19;20925;-51
2022/04/04 01:19:56;;;;;;;4.27;1.70;;;;;;;1.42;100.00;100399.13;7389792;19;20395;-52
2022/04/04 01:22:25;;;;;;;5.20;1.90;;;;;;;1.41;100.00;100393.94;7396357;19;20385;-53
2022/04/04 01:24:59;;;;;;;2.90;1.42;;;;;;;1.35;100.00;100396.94;7391839;19;20505;-50
2022/04/04 01:27:28;;;;;;;3.15;2.15;;;;;;;1.31;100.00;100390.72;7395997;19;20127;-52
2022/04/04 01:29:58;;;;;;;3.53;2.30;;;;;;;1.27;100.00;100375.16;7389278;19;20205;-49
2022/04/04 01:32:27;;;;;;;3.47;1.80;;;;;;;1.22;100.00;100374.78;7396145;19;20391;-50
2022/04/04 01:34:57;;;;;;;4.10;1.40;;;;;;;1.20;100.00;100366.19;7390113;19;20202;-53
2022/04/04 01:37:26;;;;;;;7.90;2.03;;;;;;;1.21;100.00;100358.69;7395722;19;20388;-53
2022/04/04 01:39:58;;;;;;;7.35;3.20;;;;;;;1.17;100.00;100350.69;7385872;19;20198;-49
2022/04/04 01:42:28;;;;;;;7.30;2.58;;;;;;;1.15;100.00;100348.06;7395849;19;20143;-52
2022/04/04 01:44:57;;;;;;;4.22;2.05;;;;;;;1.10;100.00;100334.13;7389551;19;20190;-49
2022/04/04 01:47:27;;;;;;;3.47;1.90;;;;;;;1.09;100.00;100327.28;7395055;19;20202;-49
2022/04/04 01:50:02;;;;;;;5.22;2.35;;;;;;;1.09;100.00;100317.13;7387905;19;20198;-50
2022/04/04 01:52:32;;;;;;;8.45;2.33;;;;;;;1.03;100.00;100312.44;7392822;19;20149;-50
2022/04/04 01:55:04;;;;;;;2.22;1.40;;;;;;;1.02;100.00;100304.75;7386965;19;20194;-54
2022/04/04 01:57:35;;;;;;;5.88;1.92;;;;;;;1.01;100.00;100301.31;7395339;19;20123;-50
2022/04/04 02:00:05;;;;;;;2.50;1.33;;;;;;;0.99;100.00;100299.41;7391885;19;20688;-55
2022/04/04 02:02:35;;;;;;;5.22;2.47;;;;;;;0.98;100.00;100292.56;7395360;19;20961;-53
2022/04/04 02:05:05;;;;;;;5.72;2.33;;;;;;;0.96;100.00;100283.97;7384334;19;20534;-55
2022/04/04 02:07:34;;;;;;;3.53;2.03;;;;;;;0.93;100.00;100282.09;7394457;19;20467;-49
2022/04/04 02:10:07;;;;;;;4.68;2.97;;;;;;;0.89;100.00;100270.81;7389028;19;20190;-53
2022/04/04 02:12:37;;;;;;;3.75;2.45;;;;;;;0.89;100.00;100263.19;7394944;19;20123;-55
2022/04/04 02:15:07;;;;;;;6.25;2.10;;;;;;;0.88;100.00;100253.78;7385475;19;20187;-53
2022/04/04 02:17:37;;;;;;;5.30;3.10;;;;;;;0.90;100.00;100244.63;7394157;19;20127;-52
2022/04/04 02:20:08;;;;;;;4.03;1.70;;;;;;;0.87;100.00;100238.44;7388888;19;20188;-50
2022/04/04 02:22:40;;;;;;;6.75;2.45;;;;;;;0.89;100.00;100227.63;7392260;19;20364;-53
2022/04/04 02:25:13;;;;;;;4.45;2.60;;;;;;;0.87;100.00;100224.06;7389290;19;20192;-53
2022/04/04 02:27:42;;;;;;;6.28;2.78;;;;;;;0.86;100.00;100212.16;7393424;19;20475;-53
2022/04/04 02:30:13;;;;;;;6.32;3.50;;;;;;;0.84;100.00;100210.28;7394255;19;20648;-53
2022/04/04 02:32:43;;;;;;;3.58;2.17;;;;;;;0.82;100.00;100202.53;7394422;19;20593;-53
2022/04/04 02:35:12;;;;;;;5.22;3.63;;;;;;;0.83;100.00;100194.16;7392407;19;20185;-61
2022/04/04 02:37:43;;;;;;;8.33;1.63;;;;;;;0.81;100.00;100183.00;7393151;19;20131;-50
2022/04/04 02:40:15;;;;;;;5.97;2.17;;;;;;;0.82;100.00;100183.88;7393440;19;20474;-52
2022/04/04 02:42:46;;;;;;;4.78;1.85;;;;;;;0.83;100.00;100170.41;7387268;19;20138;-59
2022/04/04 02:45:17;;;;;;;10.68;5.57;;;;;;;0.77;100.00;100166.66;7393590;19;20133;-49
2022/04/04 02:47:46;;;;;;;2.03;1.30;;;;;;;0.80;100.00;100168.53;7383627;19;20536;-49
2022/04/04 02:50:16;;;;;;;3.47;1.83;;;;;;;0.79;100.00;100149.00;7395952;19;20150;-49
2022/04/04 02:52:47;;;;;;;6.03;1.67;;;;;;;0.79;100.00;100149.00;7388489;19;20123;-54
2022/04/04 02:58:04;;;;;;;4.05;2.30;;;;;;;0.79;100.00;100136.28;7384446;19;20162;-52
2022/04/04 03:00:33;;;;;;;5.07;2.20;;;;;;;0.80;100.00;100132.97;7393315;19;20127;-55
2022/04/04 03:03:03;;;;;;;5.40;2.75;;;;;;;0.81;100.00;100132.19;7387319;19;20145;-52
2022/04/04 03:05:32;;;;;;;2.80;1.95;;;;;;;0.78;100.00;100122.69;7393121;19;20591;-53
2022/04/04 03:08:02;;;;;;;3.53;1.70;;;;;;;0.78;100.00;100109.13;7386353;19;20167;-52
2022/04/04 03:10:35;;;;;;;4.18;2.67;;;;;;;0.78;100.00;100112.53;7393485;19;20192;-51
2022/04/04 03:13:05;;;;;;;6.18;2.85;;;;;;;0.77;100.00;100109.91;7388121;19;20210;-53
2022/04/04 03:15:37;;;;;;;5.88;3.33;;;;;;;0.80;100.00;100098.31;7391389;19;20131;-55
2022/04/04 03:18:07;;;;;;;4.70;2.35;;;;;;;0.78;100.00;100099.84;7386422;19;20546;-51
2022/04/04 03:20:37;;;;;;;14.65;3.25;;;;;;;0.88;100.00;100093.75;7393084;19;20488;-52
2022/04/04 03:23:07;;;;;;;5.57;3.50;;;;;;;0.89;100.00;100087.91;7386928;19;20193;-52
2022/04/04 03:25:39;;;;;;;4.63;1.90;;;;;;;0.85;100.00;100088.47;7392318;19;20127;-54
2022/04/04 03:28:09;;;;;;;12.23;3.70;;;;;;;1.08;100.00;100089.19;7385549;19;20190;-49
2022/04/04 03:30:38;;;;;;;8.05;4.30;;;;;;;0.92;100.00;100080.50;7392832;19;20127;-50
2022/04/04 03:33:08;;;;;;;3.70;2.57;;;;;;;0.89;100.00;100080.28;7386385;19;20194;-50
2022/04/04 03:35:37;;;;;;;5.38;2.75;;;;;;;0.91;100.00;100072.75;7390885;19;20386;-51
2022/04/04 03:38:07;;;;;;;6.20;2.33;;;;;;;0.90;100.00;100081.16;7382333;19;20208;-51
2022/04/04 03:40:40;;;;;;;7.78;2.95;;;;;;;0.96;100.00;100070.56;7392795;19;20170;-50
2022/04/04 03:43:10;;;;;;;5.82;2.53;;;;;;;0.95;100.00;100064.59;7385863;19;20193;-53
2022/04/04 03:45:39;;;;;;;3.13;1.77;;;;;;;1.01;100.00;100064.09;7392007;19;20467;-52
2022/04/04 03:48:10;;;;;;;5.47;2.80;;;;;;;1.10;100.00;100059.69;7384433;19;20540;-50
2022/04/04 03:50:39;;;;;;;9.13;3.22;;;;;;;1.03;100.00;100058.34;7391992;19;20127;-52
2022/04/04 03:53:09;;;;;;;3.22;1.80;;;;;;;1.00;100.00;100058.16;7386314;19;20200;-52
2022/04/04 03:55:43;;;;;;;7.80;4.28;;;;;;;1.04;100.00;100061.81;7390559;19;20147;-50
2022/04/04 03:58:13;;;;;;;3.97;2.53;;;;;;;1.02;100.00;100061.69;7383686;19;20218;-53
2022/04/04 04:00:42;;;;;;;4.45;2.42;;;;;;;1.08;100.00;100051.06;7391256;19;20127;-52
2022/04/04 04:03:12;;;;;;;11.40;3.73;;;;;;;1.08;100.00;100053.63;7386572;19;20203;-50
2022/04/04 04:05:41;;;;;;;8.63;3.28;;;;;;;1.09;100.00;100047.75;7390602;19;20378;-51
2022/04/04 04:08:11;;;;;;;8.48;2.50;;;;;;;1.11;100.00;100051.28;7384444;19;20213;-54
2022/04/04 04:10:43;;;;;;;6.00;2.70;;;;;;;1.12;100.00;100042.00;7391227;19;20595;-50
2022/04/04 04:13:12;;;;;;;7.00;2.80;;;;;;;1.14;100.00;100035.34;7379749;19;20250;-49
2022/04/04 04:15:42;;;;;;;6.80;2.53;;;;;;;1.15;100.00;100037.13;7394465;19;20388;-50
2022/04/04 04:18:11;;;;;;;6.10;2.90;;;;;;;1.14;100.00;100046.41;7390612;19;20789;-51
2022/04/04 04:20:41;;;;;;;6.88;1.98;;;;;;;1.16;100.00;100038.88;7398798;19;20374;-49
2022/04/04 04:23:12;;;;;;;9.35;2.75;;;;;;;1.18;100.00;100028.03;7390762;19;20191;-52
2022/04/04 04:25:44;;;;;;;3.50;1.50;;;;;;;1.24;100.00;100026.69;7398393;19;20125;-51
2022/04/04 04:28:13;;;;;;;5.63;2.70;;;;;;;1.26;100.00;100031.09;7392120;19;20977;-51
2022/04/04 04:30:43;;;;;;;3.97;2.00;;;;;;;1.29;100.00;100035.50;7398277;19;20384;-49
2022/04/04 04:33:13;;;;;;;4.10;2.37;;;;;;;1.32;100.00;100026.44;7393559;19;20408;-48
2022/04/04 04:35:42;;;;;;;4.83;2.57;;;;;;;1.33;100.00;100030.72;7396993;19;20371;-52
2022/04/04 04:38:12;;;;;;;6.83;2.50;;;;;;;1.38;100.00;100028.50;7388464;19;20441;-49
2022/04/04 04:40:44;;;;;;;3.77;2.00;;;;;;;1.41;100.00;100036.34;7398099;19;20371;-52
2022/04/04 04:43:13;;;;;;;8.67;3.10;;;;;;;1.42;100.00;100029.56;7394552;19;20407;-52
2022/04/04 04:45:43;;;;;;;10.20;4.40;;;;;;;1.60;100.00;100022.31;7397676;19;20374;-51
2022/04/04 04:48:13;;;;;;;3.90;1.70;;;;;;;1.48;100.00;100023.25;7390892;19;20411;-52
2022/04/04 04:50:42;;;;;;;4.73;2.47;;;;;;;1.47;100.00;100018.97;7401243;19;20391;-49
2022/04/04 04:53:12;;;;;;;6.27;3.00;;;;;;;1.48;100.00;100014.72;7392932;19;20479;-51
2022/04/04 04:55:44;;;;;;;5.57;2.60;;;;;;;1.47;100.00;100006.25;7396256;19;20366;-51
2022/04/04 04:58:13;;;;;;;4.27;1.73;;;;;;;1.47;100.00;100018.97;7390935;19;20378;-49
2022/04/04 05:00:43;;;;;;;6.57;3.30;;;;;;;1.52;100.00;100016.72;7396962;19;20728;-51
2022/04/04 05:03:28;;;;;;;6.73;3.80;;;;;;;1.53;100.00;100020.16;7390764;19;20398;-50
2022/04/04 05:05:57;;;;;;;7.20;2.47;;;;;;;1.55;100.00;100023.66;7397105;19;20715;-51
2022/04/04 05:08:27;;;;;;;25.13;2.80;;;;;;;1.58;100.00;100012.03;7391916;19;20415;-55
2022/04/04 05:11:00;;;;;;;7.93;2.30;;;;;;;1.57;100.00;100011.91;7397337;19;20380;-53
2022/04/04 05:13:29;;;;;;;8.00;2.50;;;;;;;1.59;100.00;100016.34;7389271;19;20434;-51
2022/04/04 05:15:59;;;;;;;6.63;3.70;;;;;;;1.63;100.00;100007.25;7398787;19;20407;-49
2022/04/04 05:18:28;;;;;;;6.10;2.40;;;;;;;1.61;100.00;100008.81;7390650;19;20425;-51
2022/04/04 05:20:58;;;;;;;7.80;3.70;;;;;;;1.66;100.00;99992.19;7396665;19;20703;-51
2022/04/04 05:23:27;;;;;;;7.13;2.10;;;;;;;1.66;100.00;100004.03;7390062;19;20424;-55
2022/04/04 05:25:59;;;;;;;7.90;4.47;;;;;;;1.67;100.00;99988.88;7395483;19;20387;-53
2022/04/04 05:28:29;;;;;;;9.23;4.60;;;;;;;1.68;100.00;99990.63;7391284;19;21236;-51
2022/04/04 05:30:59;;;;;;;11.73;3.13;;;;;;;1.68;100.00;99977.00;7396263;19;20375;-50
2022/04/04 05:33:29;;;;;;;5.83;3.70;;;;;;;1.72;100.00;99982.41;7390279;19;20415;-49
2022/04/04 05:35:58;;;;;;;7.50;4.40;;;;;;;1.72;100.00;99966.25;7395256;19;20383;-52
2022/04/04 05:38:28;;;;;;;6.43;3.23;;;;;;;1.72;100.00;99968.81;7388586;19;20430;-52
2022/04/04 05:41:00;;;;;;;9.47;5.80;;;;;;;1.73;100.00;99974.00;7395926;19;20373;-51
2022/04/04 05:43:31;;;;;;;5.30;2.60;;;;;;;1.74;100.00;99973.22;7388147;19;20411;-53
2022/04/04 05:46:01;;;;;;;11.80;5.93;;;;;;;1.78;100.00;99958.16;7395016;19;20367;-50
2022/04/04 05:48:31;;;;;;;10.40;4.20;;;;;;;1.78;100.00;99938.69;7393333;19;20390;-51
2022/04/04 05:51:00;;;;;;;15.87;4.47;;;;;;;1.80;100.00;99943.88;7396364;19;20398;-50
2022/04/04 05:53:30;;;;;;;7.50;4.57;;;;;;;1.83;100.00;99923.69;7391611;19;20417;-51
2022/04/04 05:56:02;;;;;;;7.33;4.17;;;;;;;1.84;100.00;99928.91;7394801;19;20368;-50
2022/04/04 05:58:32;;;;;;;11.60;5.90;;;;;;;1.85;100.00;99914.53;7387550;19;20975;-51
2022/04/04 06:01:01;;;;;;;11.33;4.93;;;;;;;1.86;100.00;99918.81;7394907;19;20380;-50
2022/04/04 06:03:31;;;;;;;11.17;6.67;;;;;;;1.85;100.00;99897.56;7384690;19;20451;-51
2022/04/04 06:06:02;;;;;;;13.53;5.87;;;;;;;1.84;100.00;99895.81;7399244;19;20469;-52
2022/04/04 06:08:32;;;;;;;11.47;6.17;;;;;;;1.83;100.00;99878.81;7389120;19;20429;-49
2022/04/04 06:11:04;;;;;;;20.10;10.20;;;;;;;1.84;100.00;99874.59;7395974;19;20899;-51
2022/04/04 06:13:34;;;;;;;20.10;9.60;;;;;;;1.82;100.00;99850.72;7389375;19;20419;-49
2022/04/04 06:16:03;;;;;;;23.37;9.93;;;;;;;1.86;100.00;99850.13;7394491;19;20383;-54
2022/04/04 06:18:34;;;;;;;20.47;10.30;;;;;;;1.74;100.00;99833.31;7387795;19;20514;-50
2022/04/04 06:21:05;;;;;;;19.57;9.17;;;;;;;1.72;100.00;99813.66;7397921;19;20389;-51
2022/04/04 06:23:36;;;;;;;12.60;6.63;;;;;;;1.71;100.00;99806.81;7387876;19;20427;-53
2022/04/04 06:26:08;;;;;;;16.83;8.57;;;;;;;1.63;100.00;99798.69;7394514;19;20869;-49
2022/04/04 06:28:38;;;;;;;16.30;9.30;;;;;;;1.74;100.00;99781.56;7386003;19;20413;-49
2022/04/04 06:31:07;;;;;;;30.60;13.33;;;;;;;1.65;100.00;99764.09;7393694;19;20378;-52
2022/04/04 06:33:37;;;;;;;13.90;6.40;;;;;;;1.61;100.00;99749.41;7384353;19;20406;-50
2022/04/04 06:36:07;;;;;;;24.10;10.57;;;;;;;1.53;100.00;99736.22;7393864;19;20381;-49
2022/04/04 06:38:37;;;;;;;17.00;8.67;;;;;;;1.47;100.00;99716.41;7388256;19;20953;-53
2022/04/04 06:41:11;;;;;;;21.48;10.35;;;;;;;1.43;100.00;99683.94;7394646;19;20375;-53
2022/04/04 06:43:41;;;;;;;19.75;9.95;;;;;;;1.40;100.00;99673.59;7388586;19;20214;-53
2022/04/04 06:46:11;;;;;;;12.83;6.30;;;;;;;1.42;100.00;99635.53;7397897;19;20212;-49
2022/04/04 06:48:40;;;;;;;21.70;8.90;;;;;;;1.38;100.00;99629.38;7386171;19;20807;-55
2022/04/04 06:51:11;;;;;;;17.15;8.90;;;;;;;1.38;100.00;99593.78;7394656;19;20387;-50
2022/04/04 06:53:40;;;;;;;21.13;9.00;;;;;;;1.35;100.00;99580.91;7390045;19;20534;-51
2022/04/04 06:56:13;;;;;;;20.37;9.57;;;;;;;1.37;100.00;99555.59;7393776;19;20376;-53
2022/04/04 06:58:42;;;;;;;19.97;11.93;;;;;;;1.39;100.00;99538.75;7385721;19;20477;-54
2022/04/04 07:01:12;;;;;;;30.70;17.33;;;;;;;1.38;100.00;99502.28;7393451;19;20392;-53
2022/04/04 07:03:41;;;;;;;24.45;12.02;;;;;;;1.35;100.00;99491.97;7386625;19;20442;-52
2022/04/04 07:06:12;;;;;;;27.07;10.70;;;;;;;1.35;100.00;99461.47;7393219;19;20725;-50
2022/04/04 07:08:42;;;;;;;21.58;11.48;;;;;;;1.34;100.00;99436.84;7386678;19;20901;-51
2022/04/04 07:11:14;;;;;;;26.50;11.70;;;;;;;1.35;100.00;99390.28;7393414;19;20127;-54
2022/04/04 07:13:44;;;;;;;17.90;8.67;;;;;;;1.34;100.00;99358.03;7383636;19;20192;-51
2022/04/04 07:16:13;;;;;;;26.20;12.27;;;;;;;1.30;100.00;99335.78;7392735;19;20388;-51
2022/04/04 07:18:43;;;;;;;21.63;11.53;;;;;;;1.27;100.00;99305.97;7385673;19;20411;-52
2022/04/04 07:21:13;;;;;;;21.20;10.67;;;;;;;1.25;100.00;99271.09;7392078;19;20379;-51
2022/04/04 07:23:42;;;;;;;28.67;14.60;;;;;;;1.25;100.00;99241.50;7384723;19;20755;-50
2022/04/04 07:26:19;;;;;;;20.15;10.50;;;;;;;1.24;100.00;99219.44;7392590;19;20416;-50
2022/04/04 07:28:48;;;;;;;23.65;11.32;;;;;;;1.23;100.00;99189.69;7384877;19;20193;-52
2022/04/04 07:31:18;;;;;;;21.15;9.85;;;;;;;1.22;100.00;99182.88;7392445;19;20129;-53
2022/04/04 07:33:47;;;;;;;21.27;10.18;;;;;;;1.20;100.00;99167.56;7386384;19;20207;-51
2022/04/04 07:36:17;;;;;;;16.98;8.73;;;;;;;1.21;100.00;99156.59;7394378;19;20228;-55
2022/04/04 07:38:47;;;;;;;15.38;8.40;;;;;;;1.21;100.00;99143.91;7380969;19;20194;-51
2022/04/04 07:41:19;;;;;;;26.00;13.60;;;;;;;1.25;100.00;99126.25;7395783;19;20198;-50
2022/04/04 07:43:48;;;;;;;22.63;10.77;;;;;;;1.23;100.00;99127.84;7385490;19;20190;-51
2022/04/04 07:46:18;;;;;;;23.23;12.52;;;;;;;1.24;100.00;99088.94;7391713;19;20380;-54
2022/04/04 07:48:47;;;;;;;22.23;11.20;;;;;;;1.20;100.00;99081.16;7386681;19;20194;-49
2022/04/04 07:51:17;;;;;;;24.00;10.20;;;;;;;1.23;100.00;99071.94;7399594;19;20384;-52
2022/04/04 07:53:46;;;;;;;25.67;14.83;;;;;;;1.17;100.00;99067.41;7392520;19;20424;-51
2022/04/04 07:56:19;;;;;;;23.33;11.80;;;;;;;1.17;100.00;99042.00;7398812;19;20930;-50
2022/04/04 07:58:49;;;;;;;20.98;9.60;;;;;;;1.23;100.00;99027.06;7387315;19;20201;-49
2022/04/04 08:01:18;;;;;;;19.42;11.35;;;;;;;1.16;100.00;99038.59;7399175;19;20131;-49
2022/04/04 08:03:54;;;;;;;20.67;11.60;;;;;;;1.11;100.00;99014.63;7391917;19;20190;-47
2022/04/04 08:06:24;;;;;;;28.30;13.27;;;;;;;1.25;100.00;99000.09;7399102;19;20743;-52
2022/04/04 08:08:53;;;;;;;28.40;15.02;;;;;;;1.22;100.00;98987.22;7390896;19;20204;-51
2022/04/04 08:11:25;;;;;;;33.30;16.10;;;;;;;1.16;100.00;98985.25;7400958;19;20186;-51
2022/04/04 08:13:55;;;;;;;31.17;15.27;;;;;;;1.13;100.00;98980.00;7391911;19;20194;-49
2022/04/04 08:16:26;;;;;;;29.55;16.30;;;;;;;1.19;100.00;98974.38;7398800;19;20127;-51
2022/04/04 08:18:56;;;;;;;30.38;14.50;;;;;;;1.15;100.00;98950.47;7388425;19;20660;-48
2022/04/04 08:21:26;;;;;;;28.20;13.02;;;;;;;1.05;100.00;98948.25;7399231;19;20143;-48
2022/04/04 08:23:56;;;;;;;36.53;17.42;;;;;;;1.01;100.00;98932.00;7390298;19;20186;-49
2022/04/04 08:26:28;;;;;;;25.40;15.05;;;;;;;1.03;100.00;98934.63;7398562;19;20127;-50
2022/04/04 08:28:58;;;;;;;25.30;14.20;;;;;;;1.05;100.00;98926.28;7390679;19;20201;-53
2022/04/04 08:31:27;;;;;;;26.38;15.35;;;;;;;1.02;100.00;98899.84;7398256;19;20123;-49
2022/04/04 08:33:57;;;;;;;28.13;14.70;;;;;;;1.04;100.00;98898.25;7391659;19;20213;-50
2022/04/04 08:36:26;;;;;;;22.52;11.02;;;;;;;1.04;100.00;98885.53;7397763;19;20148;-51
2022/04/04 08:38:56;;;;;;;21.85;12.65;;;;;;;1.05;100.00;98882.22;7391812;19;20205;-48
2022/04/04 08:41:29;;;;;;;24.00;12.82;;;;;;;1.02;100.00;98864.28;7397498;19;20510;-47
2022/04/04 08:44:01;;;;;;;16.48;8.90;;;;;;;1.05;100.00;98857.69;7390243;19;20194;-51
2022/04/04 08:46:33;;;;;;;23.05;14.38;;;;;;;1.11;100.00;98846.94;7394781;19;20123;-51
2022/04/04 08:49:06;;;;;;;26.88;14.25;;;;;;;1.11;100.00;98862.19;7389159;19;20194;-47
2022/04/04 08:51:37;;;;;;;21.40;12.98;;;;;;;1.15;100.00;98837.81;7399029;19;20135;-47
2022/04/04 08:54:07;;;;;;;28.10;16.65;;;;;;;1.15;100.00;98818.38;7390090;19;20194;-50
2022/04/04 08:56:39;;;;;;;21.20;12.35;;;;;;;1.18;100.00;98818.50;7395826;19;20133;-51
2022/04/04 08:59:09;;;;;;;19.00;10.55;;;;;;;1.19;100.00;98810.06;7387237;19;20194;-51
2022/04/04 09:01:38;;;;;;;20.60;9.50;;;;;;;1.21;100.00;98802.53;7393203;19;20475;-54
2022/04/04 09:04:19;;;;;;;22.60;11.65;;;;;;;1.24;100.00;98791.66;7388797;19;20446;-51
2022/04/04 09:06:50;;;;;;;19.23;9.88;;;;;;;1.28;100.00;98794.41;7395920;19;20126;-50
2022/04/04 09:09:23;;;;;;;21.55;11.90;;;;;;;1.31;100.00;98766.59;7388519;19;20273;-50
2022/04/04 09:12:08;;;;;;;27.67;13.57;;;;;;;1.34;100.00;98773.50;7397036;19;20133;-53
2022/04/04 09:14:40;;;;;;;18.95;11.35;;;;;;;1.34;100.00;98765.88;7389441;19;20567;-48
2022/04/04 09:17:10;;;;;;;21.35;11.15;;;;;;;1.39;100.00;98759.31;7395454;19;20130;-48
2022/04/04 09:19:40;;;;;;;31.35;13.35;;;;;;;1.46;100.00;98751.19;7387796;19;20217;-48
2022/04/04 09:22:11;;;;;;;27.30;14.75;;;;;;;1.56;100.00;98749.06;7395778;19;20134;-49
2022/04/04 09:24:46;;;;;;;19.73;9.90;;;;;;;1.50;100.00;98779.28;7386555;19;20197;-49
2022/04/04 09:27:21;;;;;;;23.75;12.88;;;;;;;1.58;100.00;98727.13;7395767;19;20598;-49
2022/04/04 09:29:52;;;;;;;13.75;7.90;;;;;;;1.52;100.00;98754.81;7388970;19;20193;-47
2022/04/04 09:32:23;;;;;;;21.33;11.35;;;;;;;1.52;100.00;98737.00;7395568;19;20127;-49
2022/04/04 09:35:00;;;;;;;17.90;8.75;;;;;;;1.46;100.00;98743.56;7391545;19;20190;-52
2022/04/04 09:37:32;;;;;;;18.00;9.70;;;;;;;1.49;100.00;98735.22;7395223;19;20129;-50
2022/04/04 09:40:09;;;;;;;20.85;10.98;;;;;;;1.51;100.00;98736.16;7387727;19;20200;-51
2022/04/04 09:42:59;;;;;;;23.38;10.88;;;;;;;1.47;100.00;98731.72;7395906;19;20481;-48
2022/04/04 09:45:30;;;;;;;12.75;6.60;;;;;;;1.50;100.00;98731.00;7395395;19;20189;-50
2022/04/04 09:48:01;;;;;;;15.80;8.50;;;;;;;1.48;100.00;98710.59;7388434;19;20797;-52
2022/04/04 09:50:41;;;;;;;17.00;9.15;;;;;;;1.44;100.00;98703.63;7395330;19;20129;-50
2022/04/04 09:53:15;;;;;;;25.33;10.88;;;;;;;1.40;100.00;98695.00;7388973;19;20685;-53
2022/04/04 09:55:48;;;;;;;20.80;10.57;;;;;;;1.40;100.00;98672.13;7394805;19;20139;-52
2022/04/04 09:58:23;;;;;;;19.17;11.40;;;;;;;1.48;100.00;98675.00;7388835;19;20421;-53
2022/04/04 10:00:54;;;;;;;23.55;13.35;;;;;;;1.55;100.00;98666.88;7392408;19;20682;-53
2022/04/04 10:03:25;;;;;;;22.83;11.27;;;;;;;1.54;100.00;98654.09;7389704;19;20190;-48
2022/04/04 10:05:57;;;;;;;35.08;17.95;;;;;;;1.54;100.00;98656.63;7397842;19;20191;-48
2022/04/04 10:08:29;;;;;;;31.60;13.32;;;;;;;1.66;100.00;98630.84;7383717;19;20198;-50
2022/04/04 10:10:59;;;;;;;25.30;13.03;;;;;;;1.61;100.00;98636.63;7394872;19;20149;-50
2022/04/04 10:13:32;;;;;;;39.95;18.63;;;;;;;1.61;100.00;98628.13;7389445;19;20691;-48
2022/04/04 10:16:02;;;;;;;36.97;15.98;;;;;;;1.66;100.00;98613.94;7394772;19;20134;-54
2022/04/04 10:18:31;;;;;;;28.63;13.20;;;;;;;1.67;100.00;98590.25;7388803;19;20198;-51
2022/04/04 10:21:01;;;;;;;14.03;8.10;;;;;;;1.59;100.00;98583.97;7394571;19;20127;-52
2022/04/04 10:23:31;;;;;;;18.97;12.07;;;;;;;1.59;100.00;98592.47;7388933;19;20409;-49
2022/04/04 10:26:01;;;;;;;23.08;13.38;;;;;;;1.60;100.00;98585.72;7394447;19;20389;-53
2022/04/04 10:28:34;;;;;;;16.93;9.73;;;;;;;1.66;100.00;98562.22;7386936;19;20200;-54
2022/04/04 10:31:14;;;;;;;21.70;12.60;;;;;;;1.68;100.00;98566.56;7394521;19;20928;-54
2022/04/04 10:33:44;;;;;;;16.07;6.70;;;;;;;1.70;100.00;98564.09;7387558;19;20403;-48
2022/04/04 10:36:16;;;;;;;15.10;5.83;;;;;;;1.69;100.00;98553.03;7398289;19;20387;-52
2022/04/04 10:38:49;;;;;;;18.00;9.93;;;;;;;1.73;100.00;98544.75;7385372;19;20453;-51
2022/04/04 10:41:21;;;;;;;18.48;11.40;;;;;;;1.80;100.00;98540.75;7393735;19;20698;-50
2022/04/04 10:43:55;;;;;;;12.33;8.10;;;;;;;1.79;100.00;98530.56;7386554;19;20197;-56
2022/04/04 10:46:25;;;;;;;17.40;8.63;;;;;;;1.85;100.00;98543.53;7395011;19;20394;-50
2022/04/04 10:48:56;;;;;;;19.70;10.70;;;;;;;1.85;100.00;98523.16;7386797;19;20433;-49
2022/04/04 10:51:31;;;;;;;10.57;7.17;;;;;;;1.90;100.00;98519.16;7393668;19;20125;-54
2022/04/04 10:54:04;;;;;;;13.77;8.30;;;;;;;1.95;100.00;98525.25;7386740;19;20417;-54
2022/04/04 10:56:35;;;;;;;16.33;9.97;;;;;;;1.93;100.00;98509.09;7393291;19;20470;-54
2022/04/04 10:59:31;;;;;;;11.13;5.60;;;;;;;1.95;100.00;98510.00;7384501;19;20409;-54
2022/04/04 11:02:02;;;;;;;15.47;9.43;;;;;;;1.94;100.00;98500.63;7393464;19;20765;-53
2022/04/04 11:04:34;;;;;;;11.87;7.67;;;;;;;1.96;100.00;98488.00;7385850;19;20441;-49
2022/04/04 11:09:53;;;;;;;11.40;7.43;;;;;;;1.90;100.00;98473.38;7388061;19;20994;-55
2022/04/04 11:12:24;;;;;;;19.70;10.07;;;;;;;1.89;100.00;98486.88;7391086;19;21219;-55
2022/04/04 11:15:05;;;;;;;19.50;10.93;;;;;;;1.85;100.00;98472.31;7385418;19;20419;-53
2022/04/04 11:17:40;;;;;;;15.87;8.70;;;;;;;1.84;100.00;98448.53;7391845;19;20362;-53
2022/04/04 11:20:21;;;;;;;15.10;9.67;;;;;;;1.84;100.00;98451.09;7390805;19;20510;-55
2022/04/04 11:22:55;;;;;;;9.17;5.70;;;;;;;1.83;100.00;98446.81;7387678;19;20420;-54
2022/04/04 11:25:29;;;;;;;18.43;11.93;;;;;;;1.81;100.00;98434.84;7396230;19;20409;-54
2022/04/04 11:27:59;;;;;;;19.13;10.77;;;;;;;1.81;100.00;98447.56;7393581;19;20388;-55
2022/04/04 11:30:31;;;;;;;19.17;12.03;;;;;;;1.81;100.00;98429.75;7402113;19;20396;-49
2022/04/04 11:33:00;;;;;;;16.57;10.87;;;;;;;1.82;100.00;98421.31;7392818;19;20471;-54
2022/04/04 11:35:32;;;;;;;20.33;11.17;;;;;;;1.83;100.00;98402.69;7399398;19;20395;-55
2022/04/04 11:38:06;;;;;;;18.00;10.43;;;;;;;1.84;100.00;98390.06;7393004;19;20395;-57
2022/04/04 11:40:37;;;;;;;19.63;10.87;;;;;;;1.84;100.00;98384.13;7397093;19;20862;-52
2022/04/04 11:43:08;;;;;;;9.93;6.20;;;;;;;1.86;100.00;98377.41;7394314;19;20409;-53
2022/04/04 11:45:42;;;;;;;17.83;11.80;;;;;;;1.83;100.00;98373.06;7399503;19;20392;-55